Time;durP1;ratioP1;P1;durP2;ratioP2;P2;SDS_P1;SDS_P2;PMS_P1;PMS_P2;Temp;Humidity;BMP_temperature;BMP_pressure;BME280_temperature;BME280_humidity;BME280_pressure;Samples;Min_cycle;Max_cycle;Signal;HPM_P1;HPM_P2
2022/08/17 00:00:59;;;;;;;0.00;0.00;;;21.30;83.30;;;;;;5052918;28;20051;-67
2022/08/17 00:03:28;;;;;;;0.00;0.00;;;21.30;83.10;;;;;;5065196;28;20835;-67
2022/08/17 00:05:59;;;;;;;0.00;0.00;;;21.30;83.10;;;;;;5059050;28;20041;-66
2022/08/17 00:08:37;;;;;;;0.00;0.00;;;21.40;83.00;;;;;;5063896;28;20041;-67
2022/08/17 00:11:13;;;;;;;0.00;0.00;;;21.30;83.00;;;;;;5067390;28;20052;-67
2022/08/17 00:13:50;;;;;;;0.00;0.00;;;21.30;83.10;;;;;;5069370;28;20080;-67
2022/08/17 00:16:28;;;;;;;0.00;0.00;;;21.30;82.90;;;;;;5052092;28;20036;-67
2022/08/17 00:18:53;;;;;;;0.00;0.00;;;21.30;82.80;;;;;;5053115;28;20494;-67
2022/08/17 00:21:21;;;;;;;0.00;0.00;;;21.20;82.60;;;;;;5064709;28;20041;-67
2022/08/17 00:23:47;;;;;;;0.00;0.00;;;21.20;82.60;;;;;;5051973;28;20494;-67
2022/08/17 00:26:13;;;;;;;0.00;0.00;;;21.20;82.70;;;;;;5055334;28;20099;-67
2022/08/17 00:28:39;;;;;;;0.00;0.00;;;21.20;82.80;;;;;;5063871;28;20040;-67
2022/08/17 00:31:09;;;;;;;0.00;0.00;;;21.20;82.90;;;;;;5051783;28;20048;-67
2022/08/17 00:33:36;;;;;;;0.00;0.00;;;21.20;83.00;;;;;;5061610;28;20128;-67
2022/08/17 00:36:04;;;;;;;0.00;0.00;;;21.20;83.00;;;;;;5071880;28;20123;-67
2022/08/17 00:38:30;;;;;;;0.00;0.00;;;21.20;83.20;;;;;;5070476;28;20497;-67
2022/08/17 00:41:00;;;;;;;0.00;0.00;;;21.20;83.00;;;;;;5071274;28;20481;-67
2022/08/17 00:44:04;;;;;;;0.00;0.00;;;21.20;83.10;;;;;;5071600;28;20101;-67
2022/08/17 00:46:35;;;;;;;0.10;0.10;;;21.20;83.00;;;;;;5043143;28;20147;-68
2022/08/17 00:49:02;;;;;;;0.10;0.10;;;21.20;83.00;;;;;;5032673;28;20140;-67
2022/08/17 00:51:32;;;;;;;0.00;0.00;;;21.10;83.30;;;;;;5043308;28;20048;-68
2022/08/17 00:54:07;;;;;;;0.13;0.08;;;21.20;83.30;;;;;;5071274;28;20052;-67
2022/08/17 00:56:42;;;;;;;0.00;0.00;;;21.20;83.20;;;;;;5071270;28;20053;-67
2022/08/17 00:59:12;;;;;;;0.00;0.00;;;21.10;83.30;;;;;;5066633;28;20575;-67
2022/08/17 01:01:38;;;;;;;0.00;0.00;;;21.10;83.10;;;;;;5052926;28;20123;-67
2022/08/17 01:04:04;;;;;;;0.00;0.00;;;21.10;83.00;;;;;;5063113;28;20053;-67
2022/08/17 01:06:31;;;;;;;0.00;0.00;;;21.10;82.90;;;;;;5056583;28;20044;-67
2022/08/17 01:08:59;;;;;;;0.00;0.00;;;21.00;83.50;;;;;;5052895;28;20056;-67
2022/08/17 01:11:28;;;;;;;0.43;0.43;;;21.00;83.60;;;;;;5065417;28;20070;-67
2022/08/17 01:13:53;;;;;;;0.00;0.00;;;21.00;83.90;;;;;;5051021;28;20045;-67
2022/08/17 01:16:25;;;;;;;0.00;0.00;;;21.00;83.90;;;;;;5056058;28;20485;-67
2022/08/17 01:18:55;;;;;;;0.08;0.08;;;20.90;83.90;;;;;;5070731;28;20041;-67
2022/08/17 01:21:29;;;;;;;0.00;0.00;;;20.90;84.40;;;;;;5065054;28;20083;-67
2022/08/17 01:23:55;;;;;;;0.05;0.05;;;20.90;84.10;;;;;;5064523;28;20041;-67
2022/08/17 01:26:22;;;;;;;0.00;0.00;;;20.90;83.80;;;;;;5070138;28;20036;-67
2022/08/17 01:28:48;;;;;;;0.00;0.00;;;20.90;83.80;;;;;;5050466;28;20090;-67
2022/08/17 01:31:13;;;;;;;0.00;0.00;;;20.90;83.70;;;;;;5050658;28;20048;-67
2022/08/17 01:33:39;;;;;;;0.00;0.00;;;20.80;83.70;;;;;;5050388;28;20087;-67
2022/08/17 01:36:06;;;;;;;0.00;0.00;;;20.80;83.90;;;;;;5032924;28;20048;-67
2022/08/17 01:38:33;;;;;;;0.00;0.00;;;20.90;83.90;;;;;;5050211;28;20036;-67
2022/08/17 01:41:11;;;;;;;0.00;0.00;;;20.80;83.80;;;;;;5070441;28;20048;-67
2022/08/17 01:43:43;;;;;;;0.00;0.00;;;20.80;84.20;;;;;;5069319;28;20037;-67
2022/08/17 01:46:15;;;;;;;0.00;0.00;;;20.80;84.20;;;;;;5069763;28;20044;-67
2022/08/17 01:48:41;;;;;;;0.00;0.00;;;20.80;84.20;;;;;;5070386;28;20042;-67
2022/08/17 01:51:07;;;;;;;0.00;0.00;;;20.80;84.30;;;;;;5069907;28;20059;-67
2022/08/17 01:53:42;;;;;;;0.52;0.40;;;20.80;84.10;;;;;;5070327;28;20478;-67
2022/08/17 01:56:10;;;;;;;0.00;0.00;;;20.80;84.30;;;;;;5069117;28;20092;-67
2022/08/17 01:58:37;;;;;;;0.00;0.00;;;20.70;84.40;;;;;;5068671;28;20048;-67
2022/08/17 02:01:05;;;;;;;0.00;0.00;;;20.70;84.40;;;;;;5068408;28;20044;-67
2022/08/17 02:03:31;;;;;;;0.00;0.00;;;20.70;84.20;;;;;;5069630;28;20044;-67
2022/08/17 02:05:57;;;;;;;0.00;0.00;;;20.70;84.20;;;;;;5065339;28;20083;-68
2022/08/17 02:08:24;;;;;;;0.00;0.00;;;20.70;84.30;;;;;;5052065;28;20489;-67
2022/08/17 02:10:50;;;;;;;0.00;0.00;;;20.70;84.40;;;;;;5054080;28;20066;-67
2022/08/17 02:13:16;;;;;;;0.00;0.00;;;20.60;84.30;;;;;;5068819;28;20394;-67
2022/08/17 02:15:42;;;;;;;0.00;0.00;;;20.60;84.10;;;;;;5068565;28;20079;-67
2022/08/17 02:18:09;;;;;;;0.03;0.03;;;20.60;84.10;;;;;;5069621;28;20067;-67
2022/08/17 02:20:37;;;;;;;0.00;0.00;;;20.60;83.90;;;;;;5065978;28;20044;-67
2022/08/17 02:23:07;;;;;;;0.00;0.00;;;20.50;84.10;;;;;;5060740;28;20048;-67
2022/08/17 02:25:34;;;;;;;0.05;0.05;;;20.50;84.40;;;;;;5052851;28;20429;-67
2022/08/17 02:27:59;;;;;;;0.00;0.00;;;20.50;84.70;;;;;;5049920;28;20123;-67
2022/08/17 02:30:25;;;;;;;0.13;0.13;;;20.50;84.30;;;;;;5049609;28;20486;-67
2022/08/17 02:32:52;;;;;;;0.00;0.00;;;20.40;84.00;;;;;;5064341;28;20052;-68
2022/08/17 02:35:19;;;;;;;0.00;0.00;;;20.40;84.10;;;;;;5066918;28;20048;-67
2022/08/17 02:37:44;;;;;;;5.57;0.60;;;20.30;83.70;;;;;;5049804;28;20048;-67
2022/08/17 02:40:10;;;;;;;0.00;0.00;;;20.30;84.10;;;;;;5050537;28;20048;-67
2022/08/17 02:42:39;;;;;;;0.08;0.08;;;20.20;84.20;;;;;;5050494;28;20048;-67
2022/08/17 02:45:09;;;;;;;0.05;0.05;;;20.10;84.50;;;;;;5055930;28;20076;-68
2022/08/17 02:47:35;;;;;;;0.00;0.00;;;20.10;84.80;;;;;;5053709;28;20044;-67
2022/08/17 02:50:03;;;;;;;0.00;0.00;;;20.10;85.10;;;;;;5069284;28;20045;-67
2022/08/17 02:52:33;;;;;;;0.45;0.45;;;20.10;84.80;;;;;;5058107;28;20033;-67
2022/08/17 02:54:59;;;;;;;1.23;0.50;;;20.10;84.60;;;;;;5048553;28;20049;-67
2022/08/17 02:57:24;;;;;;;0.00;0.00;;;20.00;84.50;;;;;;5056298;28;20055;-67
2022/08/17 02:59:50;;;;;;;0.15;0.15;;;20.10;84.50;;;;;;5061454;28;20033;-67
2022/08/17 03:02:16;;;;;;;0.13;0.13;;;20.00;84.70;;;;;;5051970;28;20037;-67
2022/08/17 03:04:41;;;;;;;0.00;0.00;;;20.00;84.90;;;;;;5050312;28;20044;-67
2022/08/17 03:07:07;;;;;;;0.03;0.03;;;19.90;84.90;;;;;;5060677;28;20048;-67
2022/08/17 03:09:33;;;;;;;0.00;0.00;;;20.00;85.20;;;;;;5052895;28;20401;-67
2022/08/17 03:12:08;;;;;;;0.00;0.00;;;20.00;85.50;;;;;;5066796;28;20119;-68
2022/08/17 03:14:37;;;;;;;0.15;0.15;;;19.90;85.20;;;;;;5072274;28;20043;-68
2022/08/17 03:17:02;;;;;;;0.08;0.08;;;19.90;85.00;;;;;;5071742;28;20559;-67
2022/08/17 03:19:28;;;;;;;0.22;0.22;;;19.90;85.20;;;;;;5054929;28;20044;-67
2022/08/17 03:21:53;;;;;;;0.20;0.20;;;19.90;85.40;;;;;;5056194;28;20051;-67
2022/08/17 03:24:19;;;;;;;0.20;0.20;;;19.80;85.90;;;;;;5057367;28;20157;-68
2022/08/17 03:26:44;;;;;;;0.00;0.00;;;19.90;86.30;;;;;;5056822;28;20052;-67
2022/08/17 03:29:17;;;;;;;0.00;0.00;;;19.90;86.30;;;;;;5052909;28;20041;-68
2022/08/17 03:31:46;;;;;;;0.00;0.00;;;19.90;86.30;;;;;;5066193;28;20053;-67
2022/08/17 03:34:13;;;;;;;0.00;0.00;;;20.00;86.50;;;;;;5072234;28;20530;-67
2022/08/17 03:36:38;;;;;;;0.00;0.00;;;20.00;86.50;;;;;;5059596;28;20036;-67
2022/08/17 03:39:04;;;;;;;0.08;0.08;;;20.00;86.30;;;;;;5052538;28;20178;-67
2022/08/17 03:41:29;;;;;;;0.00;0.00;;;20.00;86.30;;;;;;5061065;28;20068;-67
2022/08/17 03:43:55;;;;;;;0.00;0.00;;;19.90;86.20;;;;;;5057301;28;20044;-67
2022/08/17 03:57:25;;;;;;;0.00;0.00;;;19.90;85.90;;;;;;5061905;28;20694;-67
2022/08/17 03:59:51;;;;;;;0.00;0.00;;;19.90;86.20;;;;;;5056756;28;20040;-67
2022/08/17 04:02:24;;;;;;;0.00;0.00;;;19.90;86.10;;;;;;5065474;28;20121;-67
2022/08/17 04:04:51;;;;;;;0.00;0.00;;;19.80;86.30;;;;;;5070725;28;20710;-67
2022/08/17 04:07:18;;;;;;;0.00;0.00;;;19.90;86.40;;;;;;5064560;28;20048;-67
2022/08/17 04:09:43;;;;;;;0.00;0.00;;;19.90;86.90;;;;;;5052163;28;20048;-67
2022/08/17 04:12:09;;;;;;;0.68;0.55;;;19.90;86.90;;;;;;5061165;28;20040;-67
2022/08/17 04:14:37;;;;;;;0.10;0.10;;;19.90;86.20;;;;;;5071416;28;20040;-67
2022/08/17 04:17:03;;;;;;;0.00;0.00;;;19.80;85.90;;;;;;5072316;28;20044;-67
2022/08/17 04:19:29;;;;;;;0.22;0.22;;;19.80;85.80;;;;;;5051505;28;20485;-67
2022/08/17 04:21:56;;;;;;;0.80;0.35;;;19.70;85.90;;;;;;5058082;28;20036;-67
2022/08/17 04:24:22;;;;;;;0.00;0.00;;;19.70;86.00;;;;;;5051979;28;20045;-67
2022/08/17 04:26:48;;;;;;;0.00;0.00;;;19.70;85.70;;;;;;5054646;28;20037;-67
2022/08/17 04:29:15;;;;;;;0.00;0.00;;;19.70;86.00;;;;;;5060026;28;20135;-67
2022/08/17 04:31:41;;;;;;;0.17;0.17;;;19.60;86.10;;;;;;5061463;28;20228;-67
2022/08/17 04:34:08;;;;;;;0.00;0.00;;;19.60;86.60;;;;;;5065140;28;20108;-67
2022/08/17 04:36:34;;;;;;;0.10;0.10;;;19.60;86.60;;;;;;5057531;28;20088;-67
2022/08/17 04:39:00;;;;;;;0.10;0.10;;;19.60;86.30;;;;;;5051355;28;20102;-67
2022/08/17 04:44:27;;;;;;;0.10;0.10;;;19.60;86.40;;;;;;5054696;28;20045;-67
2022/08/17 04:46:52;;;;;;;0.00;0.00;;;19.60;86.50;;;;;;5056006;28;20892;-67
2022/08/17 04:49:18;;;;;;;0.00;0.00;;;19.60;86.90;;;;;;5059475;28;20036;-68
2022/08/17 04:51:46;;;;;;;0.00;0.00;;;19.70;87.00;;;;;;5055760;28;20040;-67
2022/08/17 04:54:15;;;;;;;0.20;0.20;;;19.70;86.80;;;;;;5056096;28;20049;-67
2022/08/17 04:56:41;;;;;;;0.00;0.00;;;19.70;87.20;;;;;;5054874;28;20091;-67
2022/08/17 04:59:10;;;;;;;0.10;0.10;;;19.60;87.40;;;;;;5051183;28;20052;-67
2022/08/17 05:01:40;;;;;;;0.00;0.00;;;19.60;87.90;;;;;;5059874;28;20040;-67
2022/08/17 05:04:10;;;;;;;0.75;0.57;;;19.50;88.10;;;;;;5069997;28;20063;-67
2022/08/17 05:06:36;;;;;;;0.30;0.30;;;19.50;89.00;;;;;;5058884;28;20114;-67
2022/08/17 05:09:03;;;;;;;0.00;0.00;;;19.30;89.00;;;;;;5070082;28;20544;-67
2022/08/17 05:11:29;;;;;;;0.10;0.10;;;19.30;88.90;;;;;;5053792;28;20410;-67
2022/08/17 05:13:56;;;;;;;0.00;0.00;;;19.40;88.60;;;;;;5050566;28;20583;-67
2022/08/17 05:16:24;;;;;;;0.00;0.00;;;19.40;88.70;;;;;;5051732;28;20052;-67
2022/08/17 05:18:50;;;;;;;0.43;0.35;;;19.40;88.60;;;;;;5059951;28;20041;-67
2022/08/17 05:21:17;;;;;;;0.08;0.08;;;19.40;88.90;;;;;;5064420;28;20553;-68
2022/08/17 05:23:43;;;;;;;0.10;0.10;;;19.30;89.10;;;;;;5069375;28;20040;-67
2022/08/17 05:26:11;;;;;;;0.00;0.00;;;19.20;89.50;;;;;;5065091;28;20036;-61
2022/08/17 05:28:36;;;;;;;0.00;0.00;;;19.20;89.30;;;;;;5066338;28;20037;-61
2022/08/17 05:31:02;;;;;;;0.00;0.00;;;19.20;89.20;;;;;;5049624;28;20125;-68
2022/08/17 05:33:31;;;;;;;0.00;0.00;;;19.10;89.70;;;;;;5062419;28;20180;-67
2022/08/17 05:35:59;;;;;;;0.00;0.00;;;19.10;89.80;;;;;;5050568;28;20047;-67
2022/08/17 05:38:27;;;;;;;0.00;0.00;;;19.10;90.70;;;;;;5058859;28;20045;-67
2022/08/17 05:40:53;;;;;;;0.00;0.00;;;19.10;91.00;;;;;;5049918;28;20037;-67
2022/08/17 05:43:28;;;;;;;0.10;0.10;;;19.10;91.00;;;;;;5051851;28;20512;-68
2022/08/17 05:46:05;;;;;;;0.40;0.40;;;19.10;91.40;;;;;;5057108;28;20434;-67
2022/08/17 05:48:49;;;;;;;0.00;0.00;;;19.00;91.80;;;;;;5060010;28;20049;-67
2022/08/17 05:51:40;;;;;;;0.28;0.28;;;19.00;92.00;;;;;;5069446;28;20566;-68
2022/08/17 05:54:27;;;;;;;0.70;0.28;;;19.00;92.40;;;;;;5067839;28;20041;-67
2022/08/17 05:57:23;;;;;;;0.00;0.00;;;19.10;92.70;;;;;;5067549;28;20505;-67
2022/08/17 06:00:07;;;;;;;0.00;0.00;;;19.10;92.80;;;;;;5067854;28;20049;-67
2022/08/17 06:02:59;;;;;;;0.10;0.10;;;19.10;92.80;;;;;;5069705;28;20535;-67
2022/08/17 06:05:50;;;;;;;0.30;0.30;;;19.20;92.90;;;;;;5049506;28;20413;-67
2022/08/17 06:08:24;;;;;;;0.35;0.35;;;19.20;92.90;;;;;;5049700;28;20537;-68
2022/08/17 06:11:28;;;;;;;0.00;0.00;;;19.20;92.90;;;;;;5049733;28;20052;-67
2022/08/17 06:14:33;;;;;;;0.00;0.00;;;19.30;92.90;;;;;;5049842;28;20041;-67
2022/08/17 06:17:03;;;;;;;0.00;0.00;;;19.40;92.90;;;;;;5049924;28;20053;-67
2022/08/17 06:19:35;;;;;;;0.00;0.00;;;19.40;92.80;;;;;;5062982;28;20115;-68
2022/08/17 06:22:04;;;;;;;0.10;0.10;;;19.40;92.70;;;;;;5065923;28;20036;-67
2022/08/17 06:24:33;;;;;;;0.00;0.00;;;19.50;92.70;;;;;;5062543;28;20119;-67
2022/08/17 06:27:06;;;;;;;0.00;0.00;;;19.50;92.70;;;;;;5049006;28;20056;-68
2022/08/17 06:29:51;;;;;;;0.15;0.15;;;19.60;92.70;;;;;;5062317;28;20070;-68
2022/08/17 06:32:17;;;;;;;0.10;0.10;;;19.60;92.50;;;;;;5069484;28;20564;-68
2022/08/17 06:34:44;;;;;;;0.00;0.00;;;19.60;92.20;;;;;;5067028;28;20119;-68
2022/08/17 06:37:39;;;;;;;0.00;0.00;;;19.60;92.10;;;;;;5049303;28;20041;-68
2022/08/17 06:40:16;;;;;;;0.00;0.00;;;19.70;91.90;;;;;;5064053;28;20557;-67
2022/08/17 06:43:07;;;;;;;0.10;0.10;;;19.70;91.90;;;;;;5069266;28;20040;-67
2022/08/17 06:45:47;;;;;;;0.00;0.00;;;19.80;91.80;;;;;;5052340;28;20033;-68
2022/08/17 06:48:35;;;;;;;0.10;0.10;;;19.90;91.40;;;;;;5048793;28;20154;-67
2022/08/17 06:51:31;;;;;;;0.20;0.20;;;19.90;91.20;;;;;;5048135;28;20107;-67
2022/08/17 06:54:05;;;;;;;1.85;0.60;;;19.90;90.60;;;;;;5049956;28;20053;-68
2022/08/17 06:56:43;;;;;;;0.15;0.15;;;19.90;90.10;;;;;;5050098;28;20870;-66
2022/08/17 06:59:17;;;;;;;0.00;0.00;;;19.90;90.00;;;;;;5064332;28;20053;-68
2022/08/17 07:01:46;;;;;;;0.70;0.40;;;20.00;89.90;;;;;;5061713;28;20041;-68
2022/08/17 07:04:17;;;;;;;0.00;0.00;;;20.00;90.30;;;;;;5054118;28;20064;-68
2022/08/17 07:06:57;;;;;;;0.00;0.00;;;20.10;90.70;;;;;;5053130;28;20037;-68
2022/08/17 07:09:36;;;;;;;0.10;0.10;;;20.20;90.20;;;;;;5048429;28;20053;-68
2022/08/17 07:12:14;;;;;;;0.32;0.32;;;20.30;90.10;;;;;;5039029;28;20045;-68
2022/08/17 07:14:56;;;;;;;0.00;0.00;;;20.30;89.90;;;;;;5048026;28;20049;-68
2022/08/17 07:17:22;;;;;;;;;;;20.30;89.40;;;;;;5062465;28;20120;-68
2022/08/17 07:19:50;;;;;;;0.05;0.05;;;20.30;89.20;;;;;;5049418;28;19924;-68
2022/08/17 07:22:25;;;;;;;0.00;0.00;;;20.30;89.10;;;;;;5049866;28;20053;-68
2022/08/17 07:24:59;;;;;;;0.10;0.10;;;20.30;88.90;;;;;;5049036;28;20045;-69
2022/08/17 07:27:29;;;;;;;0.20;0.20;;;20.30;88.90;;;;;;5059501;28;20075;-69
2022/08/17 07:30:04;;;;;;;0.00;0.00;;;20.30;88.80;;;;;;5068327;28;20037;-67
2022/08/17 07:32:37;;;;;;;0.15;0.15;;;20.30;88.70;;;;;;5066557;28;20098;-68
2022/08/17 07:35:17;;;;;;;0.00;0.00;;;20.30;88.80;;;;;;5060847;28;20059;-67
2022/08/17 07:38:05;;;;;;;0.00;0.00;;;20.20;89.10;;;;;;5060660;28;20087;-67
2022/08/17 07:40:39;;;;;;;0.00;0.00;;;20.20;89.30;;;;;;5068394;28;20040;-67
2022/08/17 07:43:07;;;;;;;0.38;0.38;;;20.30;89.30;;;;;;5066937;28;20052;-67
2022/08/17 07:48:23;;;;;;;0.20;0.20;;;20.30;89.20;;;;;;5066168;28;20472;-68
2022/08/17 07:50:52;;;;;;;0.10;0.10;;;20.30;89.30;;;;;;5068575;28;20048;-67
2022/08/17 07:53:24;;;;;;;0.00;0.00;;;20.30;89.40;;;;;;5054147;28;20097;-67
2022/08/17 07:55:51;;;;;;;0.00;0.00;;;20.30;89.50;;;;;;5061922;28;20060;-67
2022/08/17 07:58:20;;;;;;;0.00;0.00;;;20.40;89.40;;;;;;5069990;28;20193;-67
2022/08/17 08:01:03;;;;;;;0.00;0.00;;;20.40;89.30;;;;;;5071913;28;20144;-67
2022/08/17 08:03:30;;;;;;;0.05;0.05;;;20.40;89.20;;;;;;5056634;28;20049;-68
2022/08/17 08:06:00;;;;;;;0.15;0.15;;;20.40;89.10;;;;;;5057152;28;20041;-68
2022/08/17 08:08:29;;;;;;;0.00;0.00;;;20.50;89.50;;;;;;5052281;28;20052;-66
2022/08/17 08:11:08;;;;;;;0.00;0.00;;;20.50;89.50;;;;;;5063265;28;20057;-65
2022/08/17 08:13:41;;;;;;;0.00;0.00;;;20.50;89.80;;;;;;5069773;28;20052;-66
2022/08/17 08:16:30;;;;;;;0.00;0.00;;;20.50;89.70;;;;;;5051353;28;20052;-66
2022/08/17 08:19:00;;;;;;;0.00;0.00;;;20.50;89.90;;;;;;5068055;28;20052;-66
2022/08/17 08:21:42;;;;;;;0.00;0.00;;;20.50;89.90;;;;;;5062986;28;20520;-67
2022/08/17 08:24:33;;;;;;;0.08;0.08;;;20.50;89.80;;;;;;5066959;28;20520;-66
2022/08/17 08:27:26;;;;;;;0.00;0.00;;;20.50;90.10;;;;;;5071890;28;20045;-66
2022/08/17 08:30:07;;;;;;;0.00;0.00;;;20.50;90.00;;;;;;5071436;28;20344;-66
2022/08/17 08:32:36;;;;;;;0.00;0.00;;;20.50;89.80;;;;;;5071893;28;20095;-66
2022/08/17 08:35:12;;;;;;;0.10;0.10;;;20.60;89.90;;;;;;5071737;28;20040;-66
2022/08/17 08:38:04;;;;;;;0.00;0.00;;;20.60;89.80;;;;;;5071725;28;20052;-66
2022/08/17 08:41:08;;;;;;;1.25;0.82;;;20.60;89.70;;;;;;5070526;28;20517;-66
2022/08/17 08:43:51;;;;;;;0.45;0.43;;;20.60;89.40;;;;;;5071129;28;20049;-66
2022/08/17 08:46:34;;;;;;;0.20;0.20;;;20.60;89.10;;;;;;5071588;28;20082;-66
2022/08/17 08:49:25;;;;;;;0.38;0.38;;;20.60;89.90;;;;;;5071515;28;20084;-66
2022/08/17 08:51:56;;;;;;;0.10;0.10;;;20.60;89.40;;;;;;5071029;28;20048;-66
2022/08/17 08:54:48;;;;;;;0.32;0.32;;;20.60;89.60;;;;;;5069932;28;20421;-67
2022/08/17 08:57:26;;;;;;;0.25;0.25;;;20.60;89.80;;;;;;5070752;28;20075;-66
2022/08/17 08:59:59;;;;;;;0.00;0.00;;;20.50;89.60;;;;;;5071003;28;20052;-67
2022/08/17 09:02:51;;;;;;;0.30;0.30;;;20.50;89.50;;;;;;5071419;28;20509;-68
2022/08/17 09:05:38;;;;;;;0.10;0.10;;;20.50;89.90;;;;;;5061704;28;20044;-66
2022/08/17 09:08:18;;;;;;;0.45;0.45;;;20.50;90.20;;;;;;5052701;28;20053;-66
2022/08/17 09:10:55;;;;;;;0.15;0.15;;;20.50;90.10;;;;;;5065030;28;20542;-66
2022/08/17 09:13:30;;;;;;;0.32;0.32;;;20.50;90.40;;;;;;5061691;28;20056;-66
2022/08/17 09:16:14;;;;;;;0.17;0.10;;;20.50;90.30;;;;;;5049305;28;20041;-66
2022/08/17 09:18:43;;;;;;;0.00;0.00;;;20.50;90.20;;;;;;5050686;28;20045;-66
2022/08/17 09:21:16;;;;;;;0.30;0.30;;;20.40;90.10;;;;;;5066902;28;20049;-66
2022/08/17 09:24:03;;;;;;;0.10;0.10;;;20.40;90.10;;;;;;5070709;28;20044;-67
2022/08/17 09:26:35;;;;;;;0.63;0.63;;;20.40;90.20;;;;;;5054216;28;20051;-67
2022/08/17 09:29:08;;;;;;;0.10;0.10;;;20.50;89.90;;;;;;5051129;28;20044;-66
2022/08/17 09:31:42;;;;;;;0.43;0.43;;;20.40;90.40;;;;;;5058272;28;20552;-66
2022/08/17 09:34:13;;;;;;;0.00;0.00;;;20.40;90.30;;;;;;5050511;28;20045;-67
2022/08/17 09:37:01;;;;;;;0.00;0.00;;;20.40;90.40;;;;;;5064186;28;20046;-67
2022/08/17 09:39:37;;;;;;;1.45;0.57;;;20.30;90.30;;;;;;5070066;28;20040;-67
2022/08/17 09:42:24;;;;;;;0.00;0.00;;;20.40;90.30;;;;;;5068480;28;20033;-67
2022/08/17 09:45:27;;;;;;;0.63;0.38;;;20.30;90.20;;;;;;5070174;28;20174;-66
2022/08/17 09:48:04;;;;;;;0.05;0.05;;;20.40;90.10;;;;;;5051111;28;20402;-66
2022/08/17 09:50:59;;;;;;;0.00;0.00;;;20.30;90.00;;;;;;5059831;28;20059;-67
2022/08/17 09:53:25;;;;;;;0.00;0.00;;;20.40;90.40;;;;;;5049686;28;20048;-66
2022/08/17 09:56:02;;;;;;;0.00;0.00;;;20.40;90.50;;;;;;5056277;28;20059;-67
2022/08/17 09:58:43;;;;;;;0.10;0.10;;;20.30;90.50;;;;;;5064330;28;20040;-67
2022/08/17 10:01:43;;;;;;;1.08;0.30;;;20.30;90.50;;;;;;5069145;28;20033;-70
2022/08/17 10:04:36;;;;;;;0.10;0.10;;;20.30;89.90;;;;;;5065594;28;20047;-70
2022/08/17 10:07:29;;;;;;;0.00;0.00;;;20.30;89.80;;;;;;5058526;28;20118;-71
2022/08/17 10:10:18;;;;;;;0.35;0.20;;;20.30;89.80;;;;;;5052614;28;20433;-71
2022/08/17 10:13:16;;;;;;;0.00;0.00;;;20.30;89.80;;;;;;5060988;28;20516;-69
2022/08/17 10:15:59;;;;;;;0.10;0.10;;;20.30;89.40;;;;;;5053541;28;20059;-69
2022/08/17 10:18:45;;;;;;;0.00;0.00;;;20.30;88.70;;;;;;5069237;28;20048;-70
2022/08/17 10:27:07;;;;;;;0.00;0.00;;;20.50;88.10;;;;;;5069346;28;20052;-70
2022/08/17 10:29:51;;;;;;;0.45;0.22;;;20.50;87.80;;;;;;5069279;28;20556;-70
2022/08/17 10:32:31;;;;;;;0.00;0.00;;;20.50;87.50;;;;;;5052057;28;20064;-75
2022/08/17 10:35:13;;;;;;;0.00;0.00;;;20.50;87.40;;;;;;5049484;28;20469;-76
2022/08/17 10:37:58;;;;;;;;;;;20.50;87.10;;;;;;5051368;28;20087;-75
2022/08/17 10:40:45;;;;;;;0.00;0.00;;;20.50;87.20;;;;;;5054304;28;19967;-75
2022/08/17 10:43:35;;;;;;;0.20;0.20;;;20.50;87.20;;;;;;5057528;28;20071;-71
2022/08/17 10:46:32;;;;;;;0.20;0.20;;;20.50;87.20;;;;;;5065183;28;20048;-69
2022/08/17 10:49:16;;;;;;;0.00;0.00;;;20.60;87.30;;;;;;5068086;28;20076;-70
2022/08/17 10:51:47;;;;;;;0.10;0.10;;;20.60;87.40;;;;;;5055288;28;20127;-70
2022/08/17 10:54:33;;;;;;;0.20;0.20;;;20.70;87.60;;;;;;5067842;28;20055;-68
2022/08/17 10:56:58;;;;;;;0.00;0.00;;;20.70;86.50;;;;;;5069070;28;20075;-67
2022/08/17 10:59:48;;;;;;;0.00;0.00;;;20.70;86.40;;;;;;5069248;28;20123;-68
2022/08/17 11:02:18;;;;;;;0.40;0.40;;;20.70;85.50;;;;;;5066445;28;20044;-67
2022/08/17 11:04:54;;;;;;;0.00;0.00;;;20.70;85.30;;;;;;5058851;28;20047;-67
2022/08/17 11:07:43;;;;;;;0.80;0.52;;;20.70;85.30;;;;;;5067330;28;20045;-67
2022/08/17 11:10:27;;;;;;;2.83;0.88;;;20.60;84.90;;;;;;5062601;28;20048;-66
2022/08/17 11:13:13;;;;;;;0.00;0.00;;;20.70;84.00;;;;;;5068730;28;20075;-66
2022/08/17 11:15:53;;;;;;;0.80;0.80;;;20.60;83.90;;;;;;5049072;28;20094;-66
2022/08/17 11:18:30;;;;;;;0.20;0.20;;;20.60;84.10;;;;;;5057561;28;20076;-66
2022/08/17 11:21:16;;;;;;;0.15;0.15;;;20.60;84.30;;;;;;5048589;28;20052;-67
2022/08/17 11:24:13;;;;;;;0.00;0.00;;;20.60;84.70;;;;;;5049729;28;20041;-67
2022/08/17 11:26:45;;;;;;;0.05;0.05;;;20.70;85.30;;;;;;5068869;28;20059;-67
2022/08/17 11:29:26;;;;;;;1.83;0.60;;;20.80;85.80;;;;;;5053510;28;20045;-67
2022/08/17 11:32:12;;;;;;;0.00;0.00;;;20.80;85.90;;;;;;5067888;28;20068;-66
2022/08/17 11:34:40;;;;;;;0.00;0.00;;;20.90;86.20;;;;;;5051808;28;20284;-67
2022/08/17 11:37:20;;;;;;;0.00;0.00;;;21.00;86.20;;;;;;5052560;28;20072;-66
2022/08/17 11:40:08;;;;;;;0.45;0.45;;;21.00;85.90;;;;;;5067917;28;20052;-63
2022/08/17 11:42:43;;;;;;;0.00;0.00;;;21.10;85.20;;;;;;5053370;28;20499;-62
2022/08/17 11:45:45;;;;;;;0.00;0.00;;;21.10;85.20;;;;;;5070994;28;20048;-63
2022/08/17 11:52:08;;;;;;;1.35;0.80;;;21.30;84.70;;;;;;5059041;28;20502;-67
2022/08/17 11:54:46;;;;;;;0.10;0.10;;;21.20;85.00;;;;;;5052657;28;20057;-66
2022/08/17 11:57:41;;;;;;;0.47;0.40;;;21.30;84.30;;;;;;5052808;28;20518;-67
2022/08/17 12:00:28;;;;;;;0.00;0.00;;;21.30;83.80;;;;;;5052980;28;20053;-67
2022/08/17 12:03:31;;;;;;;0.22;0.22;;;21.40;83.50;;;;;;5053303;28;20083;-68
2022/08/17 12:06:33;;;;;;;0.20;0.20;;;21.40;83.20;;;;;;5059844;28;20047;-68
2022/08/17 12:09:12;;;;;;;;;;;21.40;83.30;;;;;;5055074;28;20456;-67
2022/08/17 12:11:55;;;;;;;0.00;0.00;;;21.40;82.90;;;;;;5069151;28;19920;-67
2022/08/17 12:14:25;;;;;;;0.45;0.38;;;21.40;82.00;;;;;;5063440;28;20048;-68
2022/08/17 12:17:07;;;;;;;0.00;0.00;;;21.50;81.90;;;;;;5051863;28;20136;-67
2022/08/17 12:19:38;;;;;;;0.32;0.32;;;21.40;81.80;;;;;;5056101;28;20041;-67
2022/08/17 12:22:22;;;;;;;0.00;0.00;;;21.50;82.00;;;;;;5058832;28;20075;-67
2022/08/17 12:25:20;;;;;;;0.00;0.00;;;21.50;82.20;;;;;;5044072;28;20076;-67
2022/08/17 12:27:48;;;;;;;0.10;0.10;;;21.60;82.20;;;;;;5056277;28;20072;-67
2022/08/17 12:30:19;;;;;;;0.00;0.00;;;21.60;82.30;;;;;;5056611;28;20053;-67
2022/08/17 12:32:47;;;;;;;0.00;0.00;;;21.70;82.50;;;;;;5039136;28;20072;-68
2022/08/17 12:35:31;;;;;;;0.20;0.10;;;21.70;82.40;;;;;;5059591;28;20039;-67
2022/08/17 12:37:58;;;;;;;0.22;0.22;;;21.90;81.80;;;;;;5058544;28;20068;-67
2022/08/17 12:40:30;;;;;;;0.70;0.68;;;21.80;81.60;;;;;;5057849;28;20048;-67
2022/08/17 12:43:00;;;;;;;0.20;0.20;;;21.90;81.50;;;;;;5062334;28;20116;-67
2022/08/17 12:45:30;;;;;;;0.10;0.10;;;22.00;81.20;;;;;;5060330;28;20039;-67
2022/08/17 12:48:01;;;;;;;0.00;0.00;;;22.00;81.30;;;;;;5054670;28;20037;-67
2022/08/17 12:50:27;;;;;;;0.30;0.30;;;22.00;81.20;;;;;;5071516;28;20052;-68
2022/08/17 12:52:54;;;;;;;0.00;0.00;;;22.10;80.90;;;;;;5059764;28;20490;-67
2022/08/17 12:55:23;;;;;;;0.00;0.00;;;22.10;80.80;;;;;;5052735;28;20064;-67
2022/08/17 12:57:54;;;;;;;0.00;0.00;;;22.10;80.30;;;;;;5070788;28;20084;-68
2022/08/17 13:00:23;;;;;;;0.00;0.00;;;22.10;80.10;;;;;;5071290;28;20485;-67
2022/08/17 13:03:00;;;;;;;0.00;0.00;;;22.10;79.90;;;;;;5066207;28;20068;-67
2022/08/17 13:05:35;;;;;;;0.10;0.10;;;22.00;80.10;;;;;;5051119;28;20490;-68
2022/08/17 13:08:12;;;;;;;0.20;0.20;;;22.10;79.90;;;;;;5051149;28;20043;-68
2022/08/17 13:10:38;;;;;;;0.75;0.75;;;22.10;79.80;;;;;;5049435;28;20053;-68
2022/08/17 13:13:17;;;;;;;0.00;0.00;;;22.00;79.50;;;;;;5051000;28;20033;-68
2022/08/17 13:15:59;;;;;;;0.28;0.20;;;22.00;80.00;;;;;;5049797;28;20041;-69
2022/08/17 13:18:34;;;;;;;1.40;0.52;;;22.00;80.30;;;;;;5050909;28;20045;-69
2022/08/17 13:21:00;;;;;;;0.00;0.00;;;22.10;79.80;;;;;;5050385;28;20482;-68
2022/08/17 13:23:28;;;;;;;0.17;0.17;;;22.00;79.80;;;;;;5050000;28;20053;-68
2022/08/17 13:26:14;;;;;;;0.00;0.00;;;22.00;79.70;;;;;;5050506;28;20090;-68
2022/08/17 13:28:47;;;;;;;0.10;0.10;;;22.00;79.70;;;;;;5050562;28;20041;-69
2022/08/17 13:31:35;;;;;;;0.15;0.10;;;22.10;79.80;;;;;;5050254;28;20493;-68
2022/08/17 13:34:22;;;;;;;0.00;0.00;;;22.10;79.70;;;;;;5050388;28;20037;-66
2022/08/17 13:36:49;;;;;;;0.30;0.30;;;22.10;79.90;;;;;;5051519;28;20048;-66
2022/08/17 13:39:22;;;;;;;0.15;0.15;;;22.10;80.00;;;;;;5061493;28;20509;-68
2022/08/17 13:41:50;;;;;;;0.20;0.20;;;22.10;79.90;;;;;;5052966;28;20131;-68
2022/08/17 13:44:38;;;;;;;0.00;0.00;;;22.10;80.00;;;;;;5053933;28;20048;-68
2022/08/17 13:47:14;;;;;;;0.00;0.00;;;22.10;80.30;;;;;;5033067;28;20064;-69
2022/08/17 13:49:40;;;;;;;0.13;0.13;;;22.10;79.50;;;;;;5048456;28;20095;-69
2022/08/17 13:52:09;;;;;;;0.10;0.10;;;22.20;78.80;;;;;;5049568;28;20044;-66